Time,TemperatureF,DewpointF,PressureIn,WindDirection,WindDirectionDegrees,WindSpeedMPH,WindSpeedGustMPH,Humidity,HourlyPrecipIn,Conditions,Clouds,dailyrainin,SoftwareType,DateUTC
2013-08-07 00:02:00,62.1,60.7,29.66,ESE,103,0.0,0.0,95,0.00,,,0.00,Wunderground v.1.15,2013-08-07 05:02:00,
2013-08-07 00:08:00,62.0,60.6,29.66,ESE,103,0.0,0.0,95,0.00,,,0.00,Wunderground v.1.15,2013-08-07 05:08:00,
2013-08-07 00:13:00,62.0,60.6,29.66,ESE,103,0.0,0.0,95,0.00,,,0.00,Wunderground v.1.15,2013-08-07 05:13:00,
2013-08-07 00:18:00,62.0,60.6,29.66,ESE,103,0.0,0.0,95,0.00,,,0.00,Wunderground v.1.15,2013-08-07 05:18:00,
2013-08-07 00:24:00,62.0,60.6,29.66,ESE,103,0.0,0.0,95,0.00,,,0.00,Wunderground v.1.15,2013-08-07 05:24:00,
2013-08-07 00:29:00,61.8,60.4,29.66,ESE,103,0.0,0.0,95,0.00,,,0.00,Wunderground v.1.15,2013-08-07 05:29:00,
2013-08-07 00:35:00,61.8,60.4,29.66,ESE,103,0.0,0.0,95,0.00,,,0.00,Wunderground v.1.15,2013-08-07 05:35:00,
2013-08-07 00:41:00,61.6,60.2,29.66,ESE,103,0.0,0.0,95,0.00,,,0.01,Wunderground v.1.15,2013-08-07 05:41:00,
2013-08-07 00:47:00,61.6,60.2,29.67,ESE,103,0.0,0.0,95,0.00,,,0.01,Wunderground v.1.15,2013-08-07 05:47:00,
2013-08-07 00:53:00,61.5,60.1,29.67,ESE,103,0.0,0.0,95,0.00,,,0.01,Wunderground v.1.15,2013-08-07 05:53:00,
2013-08-07 00:58:00,61.5,60.1,29.67,ESE,103,0.0,0.0,95,0.00,,,0.01,Wunderground v.1.15,2013-08-07 05:58:00,
2013-08-07 01:04:00,61.5,60.1,29.67,ESE,103,0.0,0.0,95,0.00,,,0.01,Wunderground v.1.15,2013-08-07 06:04:00,
2013-08-07 01:09:00,61.3,59.9,29.67,ESE,103,0.0,0.0,95,0.00,,,0.01,Wunderground v.1.15,2013-08-07 06:09:00,
2013-08-07 01:14:00,61.3,59.9,29.67,ESE,103,0.0,0.0,95,0.00,,,0.01,Wunderground v.1.15,2013-08-07 06:14:00,
2013-08-07 01:20:00,61.2,59.8,29.67,ESE,103,0.0,0.0,95,0.00,,,0.01,Wunderground v.1.15,2013-08-07 06:20:00,
2013-08-07 01:25:00,61.2,59.8,29.67,ESE,103,0.0,0.0,95,0.00,,,0.01,Wunderground v.1.15,2013-08-07 06:25:00,
2013-08-07 01:31:00,61.2,59.8,29.67,ESE,103,0.0,0.0,95,0.00,,,0.01,Wunderground v.1.15,2013-08-07 06:31:00,
2013-08-07 01:37:00,61.2,59.8,29.67,ESE,103,0.0,0.0,95,0.00,,,0.01,Wunderground v.1.15,2013-08-07 06:37:00,
2013-08-07 01:43:00,61.2,59.8,29.67,ESE,103,0.0,0.0,95,0.00,,,0.01,Wunderground v.1.15,2013-08-07 06:43:00,
2013-08-07 01:48:00,61.2,59.8,29.67,ESE,103,0.0,0.0,95,0.00,,,0.01,Wunderground v.1.15,2013-08-07 06:48:00,
2013-08-07 01:54:00,61.2,59.8,29.67,ESE,103,0.0,0.0,95,0.00,,,0.01,Wunderground v.1.15,2013-08-07 06:54:00,
2013-08-07 02:00:00,61.2,59.8,29.68,ESE,103,0.0,0.0,95,0.00,,,0.01,Wunderground v.1.15,2013-08-07 07:00:00,
2013-08-07 02:06:00,61.2,59.8,29.68,ESE,103,0.0,0.0,95,0.00,,,0.01,Wunderground v.1.15,2013-08-07 07:06:00,
2013-08-07 02:11:00,61.3,60.2,29.68,ESE,103,0.0,0.0,96,0.00,,,0.01,Wunderground v.1.15,2013-08-07 07:11:00,
2013-08-07 02:17:00,61.6,60.4,29.68,ESE,103,0.0,0.0,96,0.00,,,0.01,Wunderground v.1.15,2013-08-07 07:17:00,
2013-08-07 02:23:00,61.8,60.6,29.68,ESE,103,0.0,0.0,96,0.00,,,0.01,Wunderground v.1.15,2013-08-07 07:23:00,
2013-08-07 02:29:00,62.0,60.8,29.68,ESE,109,0.0,0.0,96,0.00,,,0.01,Wunderground v.1.15,2013-08-07 07:29:00,
2013-08-07 02:35:00,62.0,60.8,29.68,ESE,109,0.0,0.0,96,0.00,,,0.01,Wunderground v.1.15,2013-08-07 07:35:00,
2013-08-07 02:40:00,62.0,60.8,29.68,ESE,109,0.0,0.0,96,0.00,,,0.01,Wunderground v.1.15,2013-08-07 07:40:00,
2013-08-07 02:45:00,62.1,60.9,29.67,SE,139,0.0,0.0,96,0.00,,,0.01,Wunderground v.1.15,2013-08-07 07:45:00,
2013-08-07 02:51:00,62.1,60.9,29.67,SE,139,0.0,0.0,96,0.00,,,0.01,Wunderground v.1.15,2013-08-07 07:51:00,
2013-08-07 02:57:00,62.1,60.9,29.67,SE,139,0.0,0.0,96,0.00,,,0.01,Wunderground v.1.15,2013-08-07 07:57:00,
2013-08-07 03:02:00,62.1,60.9,29.68,SE,139,0.0,0.0,96,0.00,,,0.01,Wunderground v.1.15,2013-08-07 08:02:00,
2013-08-07 03:07:00,62.1,60.9,29.68,SE,139,0.0,0.0,96,0.00,,,0.01,Wunderground v.1.15,2013-08-07 08:07:00,
2013-08-07 03:13:00,62.1,60.9,29.68,SE,139,0.0,0.0,96,0.00,,,0.01,Wunderground v.1.15,2013-08-07 08:13:00,
2013-08-07 03:18:00,62.1,60.9,29.69,SE,139,0.0,0.0,96,0.00,,,0.01,Wunderground v.1.15,2013-08-07 08:18:00,
2013-08-07 03:24:00,62.1,60.9,29.69,SE,139,0.0,0.0,96,0.00,,,0.01,Wunderground v.1.15,2013-08-07 08:24:00,
2013-08-07 03:30:00,62.1,60.9,29.69,NW,319,0.0,0.0,96,0.00,,,0.01,Wunderground v.1.15,2013-08-07 08:30:00,
2013-08-07 03:36:00,62.3,61.1,29.69,NW,319,0.0,0.0,96,0.00,,,0.01,Wunderground v.1.15,2013-08-07 08:36:00,
2013-08-07 03:41:00,62.3,61.1,29.69,NW,319,0.0,0.0,96,0.00,,,0.01,Wunderground v.1.15,2013-08-07 08:41:00,
2013-08-07 03:47:00,62.4,61.2,29.69,NW,319,0.0,0.0,96,0.00,,,0.01,Wunderground v.1.15,2013-08-07 08:47:00,
2013-08-07 03:52:00,62.4,61.2,29.69,NW,319,0.0,0.0,96,0.00,,,0.01,Wunderground v.1.15,2013-08-07 08:52:00,
2013-08-07 03:58:00,62.4,61.2,29.69,NW,319,0.0,0.0,96,0.00,,,0.01,Wunderground v.1.15,2013-08-07 08:58:00,
2013-08-07 04:03:00,62.4,61.2,29.69,NW,319,0.0,0.0,96,0.00,,,0.01,Wunderground v.1.15,2013-08-07 09:03:00,
2013-08-07 04:08:00,62.6,61.4,29.69,NW,319,0.0,0.0,96,0.00,,,0.01,Wunderground v.1.15,2013-08-07 09:08:00,
2013-08-07 04:14:00,62.4,61.2,29.69,NW,319,0.0,0.0,96,0.00,,,0.01,Wunderground v.1.15,2013-08-07 09:14:00,
2013-08-07 04:19:00,62.4,61.2,29.70,NW,319,0.0,0.0,96,0.00,,,0.01,Wunderground v.1.15,2013-08-07 09:19:00,
2013-08-07 04:25:00,62.3,61.1,29.70,NW,319,0.0,0.0,96,0.00,,,0.01,Wunderground v.1.15,2013-08-07 09:25:00,
2013-08-07 04:31:00,62.1,60.9,29.70,NW,319,0.0,0.0,96,0.00,,,0.01,Wunderground v.1.15,2013-08-07 09:31:00,
2013-08-07 04:37:00,62.0,60.8,29.70,NW,319,0.0,0.0,96,0.00,,,0.01,Wunderground v.1.15,2013-08-07 09:37:00,
2013-08-07 04:43:00,62.0,60.8,29.70,NW,319,0.0,0.0,96,0.00,,,0.01,Wunderground v.1.15,2013-08-07 09:43:00,
2013-08-07 04:48:00,61.8,60.6,29.70,NW,319,0.0,0.0,96,0.00,,,0.01,Wunderground v.1.15,2013-08-07 09:48:00,
2013-08-07 04:54:00,61.8,60.6,29.70,NW,319,0.0,0.0,96,0.00,,,0.01,Wunderground v.1.15,2013-08-07 09:54:00,
2013-08-07 05:00:00,61.8,60.6,29.70,NW,319,0.0,0.0,96,0.00,,,0.01,Wunderground v.1.15,2013-08-07 10:00:00,
2013-08-07 05:05:00,61.8,60.6,29.70,NW,319,0.0,0.0,96,0.00,,,0.01,Wunderground v.1.15,2013-08-07 10:05:00,
2013-08-07 05:11:00,61.8,60.6,29.70,NW,319,0.0,0.0,96,0.00,,,0.01,Wunderground v.1.15,2013-08-07 10:11:00,
2013-08-07 05:17:00,61.8,60.6,29.70,NW,319,0.0,0.0,96,0.00,,,0.01,Wunderground v.1.15,2013-08-07 10:17:00,
2013-08-07 05:23:00,61.8,60.6,29.70,NW,319,0.0,0.0,96,0.00,,,0.01,Wunderground v.1.15,2013-08-07 10:23:00,
2013-08-07 05:29:00,61.8,60.6,29.70,NW,319,0.0,0.0,96,0.00,,,0.01,Wunderground v.1.15,2013-08-07 10:29:00,
2013-08-07 05:35:00,61.8,60.6,29.71,NNE,20,0.0,0.0,96,0.00,,,0.01,Wunderground v.1.15,2013-08-07 10:35:00,
2013-08-07 05:41:00,61.6,60.2,29.71,NNE,20,0.0,0.0,95,0.00,,,0.01,Wunderground v.1.15,2013-08-07 10:41:00,
2013-08-07 05:46:00,61.6,60.4,29.72,NNE,20,0.0,0.0,96,0.00,,,0.01,Wunderground v.1.15,2013-08-07 10:46:00,
2013-08-07 05:52:00,61.6,60.2,29.72,NNE,20,0.0,0.0,95,0.00,,,0.01,Wunderground v.1.15,2013-08-07 10:52:00,
2013-08-07 05:57:00,61.5,60.1,29.72,NNE,32,0.0,0.0,95,0.00,,,0.01,Wunderground v.1.15,2013-08-07 10:57:00,
2013-08-07 06:03:00,61.5,60.1,29.73,NE,51,0.0,0.0,95,0.00,,,0.01,Wunderground v.1.15,2013-08-07 11:03:00,
2013-08-07 06:08:00,61.3,59.9,29.73,ENE,75,0.0,0.0,95,0.00,,,0.01,Wunderground v.1.15,2013-08-07 11:08:00,
2013-08-07 06:13:00,61.2,59.8,29.73,ENE,75,0.0,0.0,95,0.00,,,0.01,Wunderground v.1.15,2013-08-07 11:13:00,
2013-08-07 06:19:00,61.0,59.6,29.74,East,83,0.0,0.0,95,0.00,,,0.01,Wunderground v.1.15,2013-08-07 11:19:00,
2013-08-07 06:25:00,61.0,59.6,29.74,East,83,0.0,0.0,95,0.00,,,0.01,Wunderground v.1.15,2013-08-07 11:25:00,
2013-08-07 06:30:00,60.9,59.5,29.75,WNW,302,0.0,0.0,95,0.00,,,0.01,Wunderground v.1.15,2013-08-07 11:30:00,
2013-08-07 06:36:00,60.5,59.1,29.75,WNW,302,0.0,0.0,95,0.00,,,0.01,Wunderground v.1.15,2013-08-07 11:36:00,
2013-08-07 06:42:00,60.5,59.1,29.75,NE,39,0.0,0.0,95,0.00,,,0.01,Wunderground v.1.15,2013-08-07 11:42:00,
2013-08-07 06:48:00,60.5,59.1,29.76,NE,39,0.0,0.0,95,0.00,,,0.01,Wunderground v.1.15,2013-08-07 11:48:00,
2013-08-07 06:53:00,60.5,59.1,29.76,NNE,33,0.0,0.0,95,0.00,,,0.01,Wunderground v.1.15,2013-08-07 11:53:00,
2013-08-07 06:59:00,60.7,59.3,29.76,NNE,28,0.0,0.0,95,0.00,,,0.01,Wunderground v.1.15,2013-08-07 11:59:00,
2013-08-07 07:06:00,60.7,59.3,29.75,NNW,335,0.0,0.0,95,0.00,,,0.01,Wunderground v.1.15,2013-08-07 12:06:00,
2013-08-07 07:11:00,60.7,59.3,29.75,NNW,335,0.0,0.0,95,0.00,,,0.01,Wunderground v.1.15,2013-08-07 12:11:00,
2013-08-07 07:17:00,60.9,59.5,29.77,East,91,0.0,0.0,95,0.00,,,0.01,Wunderground v.1.15,2013-08-07 12:17:00,
2013-08-07 07:22:00,60.9,59.5,29.77,East,91,0.0,0.0,95,0.00,,,0.01,Wunderground v.1.15,2013-08-07 12:22:00,
2013-08-07 07:28:00,60.7,59.3,29.77,East,91,0.0,0.0,95,0.00,,,0.01,Wunderground v.1.15,2013-08-07 12:28:00,
2013-08-07 07:34:00,60.9,59.5,29.77,East,91,0.0,0.0,95,0.00,,,0.01,Wunderground v.1.15,2013-08-07 12:34:00,
2013-08-07 07:40:00,60.9,59.5,29.77,East,91,0.0,0.0,95,0.00,,,0.01,Wunderground v.1.15,2013-08-07 12:40:00,
2013-08-07 07:46:00,61.0,59.6,29.79,East,91,0.0,0.0,95,0.00,,,0.01,Wunderground v.1.15,2013-08-07 12:46:00,
2013-08-07 07:52:00,61.0,59.6,29.79,East,91,0.0,0.0,95,0.00,,,0.01,Wunderground v.1.15,2013-08-07 12:52:00,
2013-08-07 07:57:00,61.0,59.3,29.79,ESE,107,0.0,0.0,94,0.00,,,0.01,Wunderground v.1.15,2013-08-07 12:57:00,
2013-08-07 08:03:00,61.0,59.3,29.80,ESE,107,0.0,0.0,94,0.00,,,0.01,Wunderground v.1.15,2013-08-07 13:03:00,
2013-08-07 08:09:00,60.9,59.2,29.80,ESE,107,0.0,0.0,94,0.00,,,0.01,Wunderground v.1.15,2013-08-07 13:09:00,
2013-08-07 08:15:00,60.7,59.0,29.81,East,97,0.0,0.0,94,0.00,,,0.01,Wunderground v.1.15,2013-08-07 13:15:00,
2013-08-07 08:21:00,60.5,58.8,29.81,East,97,0.0,0.0,94,0.00,,,0.01,Wunderground v.1.15,2013-08-07 13:21:00,
2013-08-07 08:26:00,60.5,58.5,29.81,East,97,0.0,0.0,93,0.00,,,0.01,Wunderground v.1.15,2013-08-07 13:26:00,
2013-08-07 08:32:00,61.0,58.7,29.81,East,100,0.0,0.0,92,0.00,,,0.01,Wunderground v.1.15,2013-08-07 13:32:00,
2013-08-07 08:38:00,61.8,58.5,29.81,East,88,0.0,0.0,89,0.00,,,0.01,Wunderground v.1.15,2013-08-07 13:38:00,
2013-08-07 08:43:00,62.6,59.0,29.81,NNW,340,0.0,0.0,88,0.00,,,0.01,Wunderground v.1.15,2013-08-07 13:43:00,
2013-08-07 08:48:00,63.1,58.5,29.81,East,97,0.0,0.0,85,0.00,,,0.01,Wunderground v.1.15,2013-08-07 13:48:00,
2013-08-07 08:54:00,63.5,58.6,29.81,East,97,0.0,0.0,84,0.00,,,0.01,Wunderground v.1.15,2013-08-07 13:54:00,
2013-08-07 08:59:00,63.9,58.0,29.81,WNW,295,0.0,0.0,81,0.00,,,0.01,Wunderground v.1.15,2013-08-07 13:59:00,
2013-08-07 09:06:00,64.3,58.3,29.80,ENE,57,0.0,0.0,81,0.00,,,0.01,Wunderground v.1.15,2013-08-07 14:06:00,
2013-08-07 09:11:00,64.8,58.5,29.80,ENE,57,0.0,0.0,80,0.00,,,0.01,Wunderground v.1.15,2013-08-07 14:11:00,
2013-08-07 09:17:00,65.8,58.0,29.82,West,279,0.0,0.0,76,0.00,,,0.01,Wunderground v.1.15,2013-08-07 14:17:00,
2013-08-07 09:22:00,65.8,57.3,29.82,West,281,0.0,0.0,74,0.00,,,0.01,Wunderground v.1.15,2013-08-07 14:22:00,
2013-08-07 09:28:00,65.6,58.2,29.82,ENE,66,0.0,0.0,77,0.00,,,0.01,Wunderground v.1.15,2013-08-07 14:28:00,
2013-08-07 09:34:00,65.6,57.1,29.82,SE,132,0.0,0.0,74,0.00,,,0.01,Wunderground v.1.15,2013-08-07 14:34:00,
2013-08-07 09:39:00,65.5,57.4,29.82,South,177,0.0,0.0,75,0.00,,,0.01,Wunderground v.1.15,2013-08-07 14:39:00,
2013-08-07 09:45:00,66.1,56.8,29.83,South,175,0.0,0.0,72,0.00,,,0.01,Wunderground v.1.15,2013-08-07 14:45:00,
2013-08-07 09:50:00,66.3,57.4,29.83,WSW,257,0.0,0.0,73,0.00,,,0.01,Wunderground v.1.15,2013-08-07 14:50:00,
2013-08-07 09:56:00,66.6,56.9,29.83,SE,140,0.0,0.0,71,0.00,,,0.01,Wunderground v.1.15,2013-08-07 14:56:00,
2013-08-07 10:01:00,67.1,58.2,29.83,SSW,204,0.0,0.0,73,0.00,,,0.01,Wunderground v.1.15,2013-08-07 15:01:00,
2013-08-07 10:07:00,67.1,57.0,29.83,SSW,195,0.0,0.0,70,0.00,,,0.01,Wunderground v.1.15,2013-08-07 15:07:00,
2013-08-07 10:13:00,67.1,56.2,29.83,West,280,0.0,0.0,68,0.00,,,0.01,Wunderground v.1.15,2013-08-07 15:13:00,
2013-08-07 10:19:00,67.9,56.1,29.83,West,280,0.0,0.0,66,0.00,,,0.01,Wunderground v.1.15,2013-08-07 15:19:00,
2013-08-07 10:25:00,67.8,56.0,29.83,ESE,118,0.0,0.0,66,0.00,,,0.01,Wunderground v.1.15,2013-08-07 15:25:00,
2013-08-07 10:30:00,68.4,57.4,29.84,ESE,119,0.0,0.0,68,0.00,,,0.01,Wunderground v.1.15,2013-08-07 15:30:00,
2013-08-07 10:35:00,69.4,57.5,29.84,West,271,0.0,0.0,66,0.00,,,0.01,Wunderground v.1.15,2013-08-07 15:35:00,
2013-08-07 10:41:00,70.1,56.5,29.84,ENE,72,0.0,0.0,62,0.00,,,0.01,Wunderground v.1.15,2013-08-07 15:41:00,
2013-08-07 10:47:00,69.8,56.6,29.84,WNW,302,0.0,0.0,63,0.00,,,0.01,Wunderground v.1.15,2013-08-07 15:47:00,
2013-08-07 10:52:00,69.9,56.3,29.84,South,191,0.0,0.0,62,0.00,,,0.01,Wunderground v.1.15,2013-08-07 15:52:00,
2013-08-07 10:58:00,69.9,54.0,29.84,ENE,61,0.0,0.0,57,0.00,,,0.01,Wunderground v.1.15,2013-08-07 15:58:00,
2013-08-07 11:04:00,70.4,55.8,29.84,NNE,27,0.0,0.0,60,0.00,,,0.01,Wunderground v.1.15,2013-08-07 16:04:00,
2013-08-07 11:09:00,70.8,55.3,29.84,WNW,282,0.0,0.0,58,0.00,,,0.01,Wunderground v.1.15,2013-08-07 16:09:00,
2013-08-07 11:15:00,70.8,53.8,29.85,ENE,70,0.0,0.0,55,0.00,,,0.01,Wunderground v.1.15,2013-08-07 16:15:00,
2013-08-07 11:21:00,70.4,54.9,29.85,North,359,0.0,0.0,58,0.00,,,0.01,Wunderground v.1.15,2013-08-07 16:21:00,
2013-08-07 11:26:00,72.0,55.9,29.85,NW,312,0.0,0.0,57,0.00,,,0.01,Wunderground v.1.15,2013-08-07 16:26:00,
2013-08-07 11:32:00,71.3,56.2,29.85,NE,55,0.0,0.0,59,0.00,,,0.01,Wunderground v.1.15,2013-08-07 16:32:00,
2013-08-07 11:37:00,71.6,56.0,29.85,NNE,31,0.0,0.0,58,0.00,,,0.01,Wunderground v.1.15,2013-08-07 16:37:00,
2013-08-07 11:43:00,72.3,55.2,29.85,WNW,285,0.0,0.0,55,0.00,,,0.01,Wunderground v.1.15,2013-08-07 16:43:00,
2013-08-07 11:49:00,71.8,54.3,29.86,East,96,0.0,0.0,54,0.00,,,0.01,Wunderground v.1.15,2013-08-07 16:49:00,
2013-08-07 11:55:00,71.6,54.6,29.86,NE,53,0.0,0.0,55,0.00,,,0.01,Wunderground v.1.15,2013-08-07 16:55:00,
2013-08-07 12:00:00,71.5,52.9,29.86,ESE,112,0.0,0.0,52,0.00,,,0.01,Wunderground v.1.15,2013-08-07 17:00:00,
2013-08-07 12:05:00,70.9,54.4,29.86,ESE,105,0.0,0.0,56,0.00,,,0.01,Wunderground v.1.15,2013-08-07 17:05:00,
2013-08-07 12:11:00,71.6,52.5,29.86,East,95,0.0,0.0,51,0.00,,,0.01,Wunderground v.1.15,2013-08-07 17:11:00,
2013-08-07 12:16:00,71.8,54.8,29.86,South,172,0.0,0.0,55,0.00,,,0.01,Wunderground v.1.15,2013-08-07 17:16:00,
2013-08-07 12:21:00,72.1,54.0,29.86,SSE,160,0.0,0.0,53,0.00,,,0.01,Wunderground v.1.15,2013-08-07 17:21:00,
2013-08-07 12:26:00,73.2,55.0,29.86,WNW,285,0.0,0.0,53,0.00,,,0.01,Wunderground v.1.15,2013-08-07 17:26:00,
2013-08-07 12:32:00,72.8,54.1,29.86,East,86,0.0,0.0,52,0.00,,,0.01,Wunderground v.1.15,2013-08-07 17:32:00,
2013-08-07 12:37:00,73.0,53.3,29.86,WSW,252,0.0,0.0,50,0.00,,,0.01,Wunderground v.1.15,2013-08-07 17:37:00,
2013-08-07 12:42:00,72.7,51.3,29.86,North,7,0.0,0.0,47,0.00,,,0.01,Wunderground v.1.15,2013-08-07 17:42:00,
2013-08-07 12:47:00,73.5,52.6,29.86,WSW,254,0.0,0.0,48,0.00,,,0.01,Wunderground v.1.15,2013-08-07 17:47:00,
2013-08-07 12:53:00,74.6,54.7,29.86,WNW,292,0.0,0.0,50,0.00,,,0.01,Wunderground v.1.15,2013-08-07 17:53:00,
2013-08-07 12:59:00,74.0,55.8,29.86,NE,43,0.0,0.0,53,0.00,,,0.01,Wunderground v.1.15,2013-08-07 17:59:00,
2013-08-07 13:04:00,74.2,54.4,29.86,South,184,0.0,0.0,50,0.00,,,0.01,Wunderground v.1.15,2013-08-07 18:04:00,
2013-08-07 13:10:00,73.2,50.6,29.86,NE,56,0.0,0.0,45,0.00,,,0.01,Wunderground v.1.15,2013-08-07 18:10:00,
2013-08-07 13:16:00,72.5,51.7,29.86,East,99,0.0,0.0,48,0.00,,,0.01,Wunderground v.1.15,2013-08-07 18:16:00,
2013-08-07 13:22:00,73.5,49.6,29.86,NE,39,0.0,0.0,43,0.00,,,0.01,Wunderground v.1.15,2013-08-07 18:22:00,
2013-08-07 13:28:00,73.7,51.0,29.86,ENE,70,0.0,0.0,45,0.00,,,0.01,Wunderground v.1.15,2013-08-07 18:28:00,
2013-08-07 13:34:00,73.7,50.4,29.86,East,86,0.0,0.0,44,0.00,,,0.01,Wunderground v.1.15,2013-08-07 18:34:00,
2013-08-07 13:39:00,73.9,50.6,29.86,NNW,340,0.0,0.0,44,0.00,,,0.01,Wunderground v.1.15,2013-08-07 18:39:00,
2013-08-07 13:45:00,75.8,53.5,29.86,WNW,290,0.0,0.0,46,0.00,,,0.01,Wunderground v.1.15,2013-08-07 18:45:00,
2013-08-07 13:51:00,75.3,52.5,29.86,South,188,0.0,0.0,45,0.00,,,0.01,Wunderground v.1.15,2013-08-07 18:51:00,
2013-08-07 13:56:00,74.2,52.1,29.86,WSW,255,0.0,0.0,46,0.00,,,0.01,Wunderground v.1.15,2013-08-07 18:56:00,
2013-08-07 14:01:00,74.0,48.8,29.86,ESE,111,0.0,0.0,41,0.00,,,0.01,Wunderground v.1.15,2013-08-07 19:01:00,
2013-08-07 14:07:00,73.5,49.0,29.86,East,100,0.0,0.0,42,0.00,,,0.01,Wunderground v.1.15,2013-08-07 19:07:00,
2013-08-07 14:13:00,74.9,50.9,29.86,East,101,0.0,0.0,43,0.00,,,0.01,Wunderground v.1.15,2013-08-07 19:13:00,
2013-08-07 14:18:00,74.4,51.1,29.86,WNW,289,0.0,0.0,44,0.00,,,0.01,Wunderground v.1.15,2013-08-07 19:18:00,
2013-08-07 14:23:00,74.6,51.2,29.86,WNW,289,0.0,0.0,44,0.00,,,0.01,Wunderground v.1.15,2013-08-07 19:23:00,
2013-08-07 14:29:00,74.4,49.8,29.86,NNE,19,0.0,0.0,42,0.00,,,0.01,Wunderground v.1.15,2013-08-07 19:29:00,
2013-08-07 14:35:00,75.4,51.3,29.86,SE,132,0.0,0.0,43,0.00,,,0.01,Wunderground v.1.15,2013-08-07 19:35:00,
2013-08-07 14:41:00,75.8,51.7,29.86,ENE,74,0.0,0.0,43,0.00,,,0.01,Wunderground v.1.15,2013-08-07 19:41:00,
2013-08-07 14:47:00,75.3,49.3,29.85,ENE,74,0.0,0.0,40,0.00,,,0.01,Wunderground v.1.15,2013-08-07 19:47:00,
2013-08-07 14:53:00,75.4,50.7,29.85,SSW,203,0.0,0.0,42,0.00,,,0.01,Wunderground v.1.15,2013-08-07 19:53:00,
2013-08-07 14:59:00,75.8,51.7,29.85,NNE,19,0.0,0.0,43,0.00,,,0.01,Wunderground v.1.15,2013-08-07 19:59:00,
2013-08-07 15:06:00,75.8,50.4,29.85,NNE,20,0.0,0.0,41,0.00,,,0.01,Wunderground v.1.15,2013-08-07 20:06:00,
2013-08-07 15:11:00,74.9,48.9,29.85,ENE,66,0.0,0.0,40,0.00,,,0.01,Wunderground v.1.15,2013-08-07 20:11:00,
2013-08-07 15:17:00,75.3,49.3,29.85,WNW,295,0.0,0.0,40,0.00,,,0.01,Wunderground v.1.15,2013-08-07 20:17:00,
2013-08-07 15:23:00,75.4,48.0,29.85,WNW,297,0.0,0.0,38,0.00,,,0.01,Wunderground v.1.15,2013-08-07 20:23:00,
2013-08-07 15:29:00,76.3,52.2,29.85,East,94,0.0,0.0,43,0.00,,,0.01,Wunderground v.1.15,2013-08-07 20:29:00,
2013-08-07 15:34:00,75.3,47.2,29.85,West,260,0.0,0.0,37,0.00,,,0.01,Wunderground v.1.15,2013-08-07 20:34:00,
2013-08-07 15:40:00,76.1,50.7,29.85,West,260,0.0,0.0,41,0.00,,,0.01,Wunderground v.1.15,2013-08-07 20:40:00,
2013-08-07 15:46:00,76.7,51.2,29.85,SE,131,0.0,0.0,41,0.00,,,0.01,Wunderground v.1.15,2013-08-07 20:46:00,
2013-08-07 15:52:00,75.8,50.4,29.85,East,86,0.0,0.0,41,0.00,,,0.01,Wunderground v.1.15,2013-08-07 20:52:00,
2013-08-07 15:58:00,75.1,49.8,29.85,SE,135,0.0,0.0,41,0.00,,,0.01,Wunderground v.1.15,2013-08-07 20:58:00,
2013-08-07 16:03:00,75.6,50.2,29.85,WSW,237,0.0,0.0,41,0.00,,,0.01,Wunderground v.1.15,2013-08-07 21:03:00,
2013-08-07 16:09:00,75.3,47.9,29.85,East,92,0.0,0.0,38,0.00,,,0.01,Wunderground v.1.15,2013-08-07 21:09:00,
2013-08-07 16:15:00,74.9,48.3,29.85,East,98,0.0,0.0,39,0.00,,,0.01,Wunderground v.1.15,2013-08-07 21:15:00,
2013-08-07 16:21:00,74.9,50.3,29.85,ESE,110,0.0,0.0,42,0.00,,,0.01,Wunderground v.1.15,2013-08-07 21:21:00,
2013-08-07 16:27:00,74.7,48.1,29.85,WNW,295,0.0,0.0,39,0.00,,,0.01,Wunderground v.1.15,2013-08-07 21:27:00,
2013-08-07 16:32:00,74.6,49.3,29.85,NNW,338,0.0,0.0,41,0.00,,,0.01,Wunderground v.1.15,2013-08-07 21:32:00,
2013-08-07 16:38:00,74.6,48.0,29.85,WNW,289,0.0,0.0,39,0.00,,,0.01,Wunderground v.1.15,2013-08-07 21:38:00,
2013-08-07 16:44:00,74.6,48.7,29.85,WNW,288,0.0,0.0,40,0.00,,,0.01,Wunderground v.1.15,2013-08-07 21:44:00,
2013-08-07 16:50:00,74.6,47.3,29.84,ESE,122,0.0,0.0,38,0.00,,,0.01,Wunderground v.1.15,2013-08-07 21:50:00,
2013-08-07 16:56:00,74.6,48.0,29.84,ESE,122,0.0,0.0,39,0.00,,,0.01,Wunderground v.1.15,2013-08-07 21:56:00,
2013-08-07 17:02:00,74.6,48.0,29.84,North,8,0.0,0.0,39,0.00,,,0.01,Wunderground v.1.15,2013-08-07 22:02:00,
2013-08-07 17:07:00,74.6,48.7,29.84,SW,229,0.0,0.0,40,0.00,,,0.01,Wunderground v.1.15,2013-08-07 22:07:00,
2013-08-07 17:13:00,74.4,47.8,29.84,ENE,70,0.0,0.0,39,0.00,,,0.01,Wunderground v.1.15,2013-08-07 22:13:00,
2013-08-07 17:18:00,74.2,49.0,29.84,ENE,69,0.0,0.0,41,0.00,,,0.01,Wunderground v.1.15,2013-08-07 22:18:00,
2013-08-07 17:24:00,74.2,48.3,29.84,NW,311,0.0,0.0,40,0.00,,,0.01,Wunderground v.1.15,2013-08-07 22:24:00,
2013-08-07 17:30:00,74.0,48.8,29.85,NW,311,0.0,0.0,41,0.00,,,0.01,Wunderground v.1.15,2013-08-07 22:30:00,
2013-08-07 17:36:00,73.9,48.7,29.85,North,2,0.0,0.0,41,0.00,,,0.01,Wunderground v.1.15,2013-08-07 22:36:00,
2013-08-07 17:41:00,73.9,48.7,29.85,SSE,160,0.0,0.0,41,0.00,,,0.01,Wunderground v.1.15,2013-08-07 22:41:00,
2013-08-07 17:47:00,73.9,48.1,29.85,SSE,160,0.0,0.0,40,0.00,,,0.01,Wunderground v.1.15,2013-08-07 22:47:00,
2013-08-07 17:53:00,73.9,49.4,29.85,South,181,0.0,0.0,42,0.00,,,0.01,Wunderground v.1.15,2013-08-07 22:53:00,
2013-08-07 17:59:00,73.9,48.1,29.85,NE,44,0.0,0.0,40,0.00,,,0.01,Wunderground v.1.15,2013-08-07 22:59:00,
2013-08-07 18:05:00,73.5,47.0,29.85,ESE,111,0.0,0.0,39,0.00,,,0.01,Wunderground v.1.15,2013-08-07 23:05:00,
2013-08-07 18:11:00,73.3,48.2,29.85,ESE,115,0.0,0.0,41,0.00,,,0.01,Wunderground v.1.15,2013-08-07 23:11:00,
2013-08-07 18:17:00,73.5,49.0,29.85,ESE,115,0.0,0.0,42,0.00,,,0.01,Wunderground v.1.15,2013-08-07 23:17:00,
2013-08-07 18:20:00,73.3,48.8,29.85,ESE,115,0.0,0.0,42,0.00,,,0.01,Wunderground v.1.15,2013-08-07 23:20:00,
2013-08-07 18:25:00,73.3,47.5,29.85,East,101,0.0,0.0,40,0.00,,,0.01,Wunderground v.1.15,2013-08-07 23:25:00,
2013-08-07 18:31:00,73.2,48.1,29.85,East,101,0.0,0.0,41,0.00,,,0.01,Wunderground v.1.15,2013-08-07 23:31:00,
2013-08-07 18:36:00,73.2,47.4,29.85,SW,221,0.0,0.0,40,0.00,,,0.01,Wunderground v.1.15,2013-08-07 23:36:00,
2013-08-07 18:42:00,73.2,48.1,29.85,SW,221,0.0,0.0,41,0.00,,,0.01,Wunderground v.1.15,2013-08-07 23:42:00,
2013-08-07 18:47:00,73.0,47.9,29.85,NE,45,0.0,0.0,41,0.00,,,0.01,Wunderground v.1.15,2013-08-07 23:47:00,
2013-08-07 18:53:00,72.8,47.7,29.85,NE,45,0.0,0.0,41,0.00,,,0.01,Wunderground v.1.15,2013-08-07 23:53:00,
2013-08-07 18:59:00,72.8,48.4,29.85,NE,45,0.0,0.0,42,0.00,,,0.01,Wunderground v.1.15,2013-08-07 23:59:00,
2013-08-07 19:05:00,72.7,48.3,29.85,NE,45,0.0,0.0,42,0.00,,,0.01,Wunderground v.1.15,2013-08-08 00:05:00,
2013-08-07 19:11:00,72.5,48.1,29.85,NE,45,0.0,0.0,42,0.00,,,0.01,Wunderground v.1.15,2013-08-08 00:11:00,
2013-08-07 19:17:00,72.3,48.5,29.86,NE,45,0.0,0.0,43,0.00,,,0.01,Wunderground v.1.15,2013-08-08 00:17:00,
2013-08-07 19:23:00,72.3,49.2,29.86,NE,45,0.0,0.0,44,0.00,,,0.01,Wunderground v.1.15,2013-08-08 00:23:00,
2013-08-07 19:29:00,72.3,48.5,29.86,NE,45,0.0,0.0,43,0.00,,,0.01,Wunderground v.1.15,2013-08-08 00:29:00,
2013-08-07 19:35:00,72.3,49.2,29.86,NE,45,0.0,0.0,44,0.00,,,0.01,Wunderground v.1.15,2013-08-08 00:35:00,
2013-08-07 19:41:00,72.3,49.8,29.86,ENE,71,0.0,0.0,45,0.00,,,0.01,Wunderground v.1.15,2013-08-08 00:41:00,
2013-08-07 19:46:00,72.1,49.0,29.86,ENE,71,0.0,0.0,44,0.00,,,0.01,Wunderground v.1.15,2013-08-08 00:46:00,
2013-08-07 19:52:00,72.1,49.6,29.86,ENE,71,0.0,0.0,45,0.00,,,0.01,Wunderground v.1.15,2013-08-08 00:52:00,
2013-08-07 19:58:00,72.0,50.1,29.86,ENE,71,0.0,0.0,46,0.00,,,0.01,Wunderground v.1.15,2013-08-08 00:58:00,
2013-08-07 20:03:00,72.0,50.1,29.86,ENE,71,0.0,0.0,46,0.00,,,0.01,Wunderground v.1.15,2013-08-08 01:03:00,
2013-08-07 20:09:00,71.8,49.9,29.86,ENE,71,0.0,0.0,46,0.00,,,0.01,Wunderground v.1.15,2013-08-08 01:09:00,
2013-08-07 20:14:00,71.8,50.5,29.86,ENE,71,0.0,0.0,47,0.00,,,0.01,Wunderground v.1.15,2013-08-08 01:14:00,
2013-08-07 20:20:00,71.6,50.3,29.86,ENE,71,0.0,0.0,47,0.00,,,0.01,Wunderground v.1.15,2013-08-08 01:20:00,
2013-08-07 20:26:00,71.3,50.6,29.86,ENE,71,0.0,0.0,48,0.00,,,0.01,Wunderground v.1.15,2013-08-08 01:26:00,
2013-08-07 20:32:00,71.1,51.0,29.86,ENE,71,0.0,0.0,49,0.00,,,0.01,Wunderground v.1.15,2013-08-08 01:32:00,
2013-08-07 20:38:00,70.8,51.2,29.86,ENE,71,0.0,0.0,50,0.00,,,0.01,Wunderground v.1.15,2013-08-08 01:38:00,
2013-08-07 20:44:00,70.4,50.9,29.86,ENE,71,0.0,0.0,50,0.00,,,0.01,Wunderground v.1.15,2013-08-08 01:44:00,
2013-08-07 20:50:00,70.1,51.1,29.87,ENE,71,0.0,0.0,51,0.00,,,0.01,Wunderground v.1.15,2013-08-08 01:50:00,
2013-08-07 20:55:00,69.8,51.4,29.87,ENE,71,0.0,0.0,52,0.00,,,0.01,Wunderground v.1.15,2013-08-08 01:55:00,
2013-08-07 21:01:00,69.6,51.2,29.88,ENE,71,0.0,0.0,52,0.00,,,0.01,Wunderground v.1.15,2013-08-08 02:01:00,
2013-08-07 21:07:00,69.1,51.2,29.88,ENE,71,0.0,0.0,53,0.00,,,0.01,Wunderground v.1.15,2013-08-08 02:07:00,
2013-08-07 21:13:00,68.9,51.6,29.88,ENE,71,0.0,0.0,54,0.00,,,0.01,Wunderground v.1.15,2013-08-08 02:13:00,
2013-08-07 21:18:00,68.6,51.8,29.88,ENE,71,0.0,0.0,55,0.00,,,0.01,Wunderground v.1.15,2013-08-08 02:18:00,
2013-08-07 21:24:00,68.3,51.5,29.88,ENE,71,0.0,0.0,55,0.00,,,0.01,Wunderground v.1.15,2013-08-08 02:24:00,
2013-08-07 21:29:00,68.1,51.8,29.88,ENE,71,0.0,0.0,56,0.00,,,0.01,Wunderground v.1.15,2013-08-08 02:29:00,
2013-08-07 21:35:00,67.8,51.5,29.89,ENE,71,0.0,0.0,56,0.00,,,0.01,Wunderground v.1.15,2013-08-08 02:35:00,
2013-08-07 21:40:00,67.4,51.6,29.89,ENE,71,0.0,0.0,57,0.00,,,0.01,Wunderground v.1.15,2013-08-08 02:40:00,
2013-08-07 21:45:00,67.3,51.5,29.89,ENE,71,0.0,0.0,57,0.00,,,0.01,Wunderground v.1.15,2013-08-08 02:45:00,
2013-08-07 21:51:00,66.9,51.6,29.89,ENE,71,0.0,0.0,58,0.00,,,0.01,Wunderground v.1.15,2013-08-08 02:51:00,
2013-08-07 21:57:00,66.8,51.5,29.89,ENE,71,0.0,0.0,58,0.00,,,0.01,Wunderground v.1.15,2013-08-08 02:57:00,
2013-08-07 22:02:00,66.4,51.6,29.90,ENE,71,0.0,0.0,59,0.00,,,0.01,Wunderground v.1.15,2013-08-08 03:02:00,
2013-08-07 22:08:00,66.3,51.5,29.90,ENE,71,0.0,0.0,59,0.00,,,0.01,Wunderground v.1.15,2013-08-08 03:08:00,
2013-08-07 22:13:00,66.1,51.8,29.90,ENE,71,0.0,0.0,60,0.00,,,0.01,Wunderground v.1.15,2013-08-08 03:13:00,
2013-08-07 22:19:00,65.8,52.0,29.90,ENE,71,0.0,0.0,61,0.00,,,0.01,Wunderground v.1.15,2013-08-08 03:19:00,
2013-08-07 22:25:00,65.5,51.7,29.90,ENE,71,0.0,0.0,61,0.00,,,0.01,Wunderground v.1.15,2013-08-08 03:25:00,
2013-08-07 22:31:00,65.2,51.8,29.91,ENE,71,0.0,0.0,62,0.00,,,0.01,Wunderground v.1.15,2013-08-08 03:31:00,
2013-08-07 22:36:00,65.0,52.1,29.91,ENE,71,0.0,0.0,63,0.00,,,0.01,Wunderground v.1.15,2013-08-08 03:36:00,
2013-08-07 22:41:00,64.7,51.8,29.91,ENE,71,0.0,0.0,63,0.00,,,0.01,Wunderground v.1.15,2013-08-08 03:41:00,
2013-08-07 22:46:00,64.5,52.0,29.91,ENE,71,0.0,0.0,64,0.00,,,0.01,Wunderground v.1.15,2013-08-08 03:46:00,
2013-08-07 22:52:00,64.2,51.8,29.91,ENE,71,0.0,0.0,64,0.00,,,0.01,Wunderground v.1.15,2013-08-08 03:52:00,
2013-08-07 22:57:00,64.0,52.0,29.91,ENE,71,0.0,0.0,65,0.00,,,0.01,Wunderground v.1.15,2013-08-08 03:57:00,
2013-08-07 23:01:00,63.9,51.9,29.91,ENE,71,0.0,0.0,65,0.00,,,0.01,Wunderground v.1.15,2013-08-08 04:01:00,
2013-08-07 23:02:00,63.7,51.7,29.91,ENE,71,0.0,0.0,65,0.00,,,0.01,Wunderground v.1.15,2013-08-08 04:02:00,
2013-08-07 23:03:00,63.7,51.7,29.91,ENE,71,0.0,0.0,65,0.00,,,0.01,Wunderground v.1.15,2013-08-08 04:03:00,
2013-08-07 23:06:00,63.5,51.5,29.91,ENE,71,0.0,0.0,65,0.00,,,0.01,Wunderground v.1.15,2013-08-08 04:06:00,
2013-08-07 23:11:00,63.4,51.8,29.91,ENE,71,0.0,0.0,66,0.00,,,0.01,Wunderground v.1.15,2013-08-08 04:11:00,
2013-08-07 23:13:00,63.2,51.6,29.91,ENE,71,0.0,0.0,66,0.00,,,0.01,Wunderground v.1.15,2013-08-08 04:13:00,
2013-08-07 23:18:00,63.2,51.6,29.91,ENE,71,0.0,0.0,66,0.00,,,0.01,Wunderground v.1.15,2013-08-08 04:18:00,
2013-08-07 23:24:00,63.1,52.0,29.91,ENE,71,0.0,0.0,67,0.00,,,0.01,Wunderground v.1.15,2013-08-08 04:24:00,
2013-08-07 23:30:00,62.9,52.2,29.91,ENE,71,0.0,0.0,68,0.00,,,0.01,Wunderground v.1.15,2013-08-08 04:30:00,
2013-08-07 23:35:00,62.7,52.0,29.91,ENE,71,0.0,0.0,68,0.00,,,0.01,Wunderground v.1.15,2013-08-08 04:35:00,
2013-08-07 23:41:00,62.6,52.3,29.91,ENE,71,0.0,0.0,69,0.00,,,0.01,Wunderground v.1.15,2013-08-08 04:41:00,
2013-08-07 23:46:00,62.4,52.5,29.91,ENE,71,0.0,0.0,70,0.00,,,0.01,Wunderground v.1.15,2013-08-08 04:46:00,
2013-08-07 23:52:00,62.3,52.4,29.91,ENE,71,0.0,0.0,70,0.00,,,0.01,Wunderground v.1.15,2013-08-08 04:52:00,
2013-08-07 23:58:00,62.3,53.2,29.91,ENE,71,0.0,0.0,72,0.00,,,0.01,Wunderground v.1.15,2013-08-08 04:58:00,